createdAt,value
2019-04-04T00:02:23.781Z,16.23
2019-04-04T00:04:52.503Z,17.33
2019-04-04T00:07:20.720Z,17.67
2019-04-04T00:09:48.555Z,16.90
2019-04-04T00:12:16.307Z,17.37
2019-04-04T00:14:44.265Z,16.50
2019-04-04T00:17:12.073Z,17.90
2019-04-04T00:19:39.872Z,18.23
2019-04-04T00:22:07.709Z,16.27
2019-04-04T00:24:35.661Z,18.37
2019-04-04T00:27:03.412Z,19.03
2019-04-04T00:29:31.212Z,20.27
2019-04-04T00:31:59.010Z,21.00
2019-04-04T00:34:28.108Z,21.73
2019-04-04T00:36:56.692Z,21.63
2019-04-04T00:39:24.522Z,22.20
2019-04-04T00:41:52.294Z,22.60
2019-04-04T00:44:22.718Z,22.10
2019-04-04T00:46:49.733Z,21.93
2019-04-04T00:49:17.508Z,21.10
2019-04-04T00:51:45.279Z,20.77
2019-04-04T00:54:14.121Z,21.07
2019-04-04T00:56:42.460Z,21.67
2019-04-04T00:59:10.246Z,22.07
2019-04-04T01:01:38.011Z,21.67
2019-04-04T01:04:05.781Z,21.20
2019-04-04T01:06:34.289Z,19.97
2019-04-04T01:09:04.642Z,20.57
2019-04-04T01:11:32.423Z,19.33
2019-04-04T01:14:00.594Z,19.13
2019-04-04T01:16:28.401Z,18.27
2019-04-04T01:18:56.165Z,17.60
2019-04-04T01:21:24.026Z,17.57
2019-04-04T01:23:51.821Z,16.10
2019-04-04T01:26:19.599Z,15.57
2019-04-04T01:28:47.365Z,14.30
2019-04-04T01:31:15.541Z,13.90
2019-04-04T01:33:43.367Z,13.40
2019-04-04T01:36:11.159Z,12.87
2019-04-04T01:38:38.905Z,12.13
2019-04-04T01:41:06.652Z,12.70
2019-04-04T01:43:34.813Z,12.63
2019-04-04T01:46:02.540Z,13.17
2019-04-04T01:48:30.265Z,12.40
2019-04-04T01:50:58.035Z,11.87
2019-04-04T01:53:25.763Z,11.00
2019-04-04T01:55:53.805Z,10.03
2019-04-04T01:58:21.537Z,10.10
2019-04-04T02:00:49.289Z,10.33
2019-04-04T02:03:17.793Z,9.70
2019-04-04T02:05:45.521Z,9.50
2019-04-04T02:08:13.272Z,9.83
2019-04-04T02:10:40.985Z,9.33
2019-04-04T02:13:09.865Z,10.23
2019-04-04T02:15:38.245Z,9.70
2019-04-04T02:18:05.998Z,10.13
2019-04-04T02:20:33.867Z,10.80
2019-04-04T02:23:01.950Z,10.80
2019-04-04T02:25:29.744Z,10.83
2019-04-04T02:27:57.898Z,10.47
2019-04-04T02:30:25.621Z,8.97
2019-04-04T02:32:53.694Z,10.17
2019-04-04T02:35:21.756Z,9.80
2019-04-04T02:37:49.533Z,8.87
2019-04-04T02:40:17.279Z,8.83
2019-04-04T02:42:45.062Z,7.80
2019-04-04T02:45:12.922Z,7.93
2019-04-04T02:47:40.746Z,8.23
2019-04-04T02:50:08.891Z,7.87
2019-04-04T02:52:36.634Z,7.27
2019-04-04T02:55:04.823Z,7.67
2019-04-04T02:57:32.591Z,8.53
2019-04-04T03:00:00.425Z,8.83
2019-04-04T03:02:28.188Z,8.63
2019-04-04T03:04:55.946Z,9.33
2019-04-04T03:07:23.679Z,9.90
2019-04-04T03:09:51.399Z,9.40
2019-04-04T03:12:19.287Z,9.80
2019-04-04T03:14:50.313Z,10.87
2019-04-04T03:17:16.706Z,11.13
2019-04-04T03:19:44.686Z,11.33
2019-04-04T03:22:12.501Z,12.20
2019-04-04T03:24:44.472Z,13.17
2019-04-04T03:27:10.013Z,13.07
2019-04-04T03:29:38.448Z,12.47
2019-04-04T03:32:13.135Z,13.97
2019-04-04T03:34:36.141Z,14.07
2019-04-04T03:37:06.639Z,14.70
2019-04-04T03:39:33.561Z,14.20
2019-04-04T03:42:01.334Z,14.50
2019-04-04T03:44:29.063Z,14.43
2019-04-04T03:46:56.810Z,14.37
2019-04-04T03:49:26.975Z,14.77
2019-04-04T03:51:54.728Z,13.70
2019-04-04T03:54:25.105Z,14.10
2019-04-04T03:56:52.788Z,13.70
2019-04-04T03:59:20.564Z,14.37
2019-04-04T04:01:48.319Z,13.93
2019-04-04T04:04:16.079Z,14.40
2019-04-04T04:06:44.007Z,13.97
2019-04-04T04:09:11.777Z,13.53
2019-04-04T04:11:39.543Z,13.10
2019-04-04T04:14:07.299Z,14.17
2019-04-04T04:16:36.104Z,13.17
2019-04-04T04:19:04.340Z,14.37
2019-04-04T04:21:32.062Z,15.00
2019-04-04T04:23:59.820Z,14.73
2019-04-04T04:26:27.552Z,15.30
2019-04-04T04:28:55.344Z,14.63
2019-04-04T04:31:23.093Z,15.60
2019-04-04T04:33:50.828Z,14.93
2019-04-04T04:36:18.576Z,15.30
2019-04-04T04:38:46.344Z,15.90
2019-04-04T04:41:14.126Z,15.70
2019-04-04T04:43:41.857Z,15.33
2019-04-04T04:46:09.630Z,16.33
2019-04-04T04:48:37.387Z,14.73
2019-04-04T04:51:05.107Z,15.23
2019-04-04T04:53:32.843Z,14.70
2019-04-04T04:56:00.792Z,15.97
2019-04-04T04:58:28.628Z,14.83
2019-04-04T05:00:56.417Z,13.90
2019-04-04T05:03:24.812Z,13.17
2019-04-04T05:05:52.705Z,14.03
2019-04-04T05:08:20.469Z,12.33
2019-04-04T05:10:48.190Z,12.27
2019-04-04T05:13:15.947Z,13.07
2019-04-04T05:15:43.697Z,15.50
2019-04-04T05:18:11.973Z,14.23
2019-04-04T05:20:39.909Z,15.00
2019-04-04T05:23:07.611Z,14.00
2019-04-04T05:25:35.493Z,14.63
2019-04-04T05:28:06.105Z,14.20
2019-04-04T05:30:32.920Z,13.60
2019-04-04T05:33:00.671Z,13.60
2019-04-04T05:35:28.412Z,13.83
2019-04-04T05:37:56.153Z,14.97
2019-04-04T05:40:24.287Z,16.47
2019-04-04T05:42:52.083Z,14.70
2019-04-04T05:45:19.877Z,14.43
2019-04-04T05:47:47.631Z,14.37
2019-04-04T05:50:16.472Z,15.07
2019-04-04T05:52:44.364Z,14.70
2019-04-04T05:55:12.097Z,14.70
2019-04-04T05:57:39.867Z,14.67
2019-04-04T06:00:10.618Z,15.27
2019-04-04T06:02:38.373Z,16.10
2019-04-04T06:05:06.643Z,17.27
2019-04-04T06:07:36.412Z,18.00
2019-04-04T06:10:04.680Z,18.27
2019-04-04T06:12:32.444Z,19.30
2019-04-04T06:15:01.129Z,18.37
2019-04-04T06:17:29.010Z,19.37
2019-04-04T06:19:56.758Z,17.80
2019-04-04T06:22:24.515Z,17.70
2019-04-04T06:24:52.429Z,15.87
2019-04-04T06:27:20.193Z,16.83
2019-04-04T06:29:48.340Z,17.37
2019-04-04T06:32:16.105Z,18.30
2019-04-04T06:34:44.299Z,18.90
2019-04-04T06:37:12.568Z,19.00
2019-04-04T06:39:40.278Z,18.83
2019-04-04T06:42:11.168Z,21.00
2019-04-04T06:44:37.691Z,22.67
2019-04-04T06:47:05.551Z,20.37
2019-04-04T06:49:35.478Z,20.03
2019-04-04T06:52:02.994Z,19.60
2019-04-04T06:54:30.787Z,20.07
2019-04-04T06:56:59.274Z,21.43
2019-04-04T06:59:27.144Z,21.33
2019-04-04T07:01:54.944Z,22.23
2019-04-04T07:04:22.679Z,20.87
2019-04-04T07:06:50.435Z,20.27
2019-04-04T07:09:19.176Z,20.77
2019-04-04T07:11:47.016Z,22.13
2019-04-04T07:14:14.770Z,24.40
2019-04-04T07:16:42.543Z,25.00
2019-04-04T07:19:14.146Z,26.17
2019-04-04T07:21:40.027Z,26.23
2019-04-04T07:24:07.754Z,25.93
2019-04-04T07:26:35.533Z,24.93
2019-04-04T07:29:03.473Z,24.40
2019-04-04T07:31:33.432Z,25.53
2019-04-04T07:34:00.855Z,25.97
2019-04-04T07:36:28.623Z,25.53
2019-04-04T07:38:58.171Z,25.50
2019-04-04T07:41:26.303Z,25.60
2019-04-04T07:43:54.051Z,25.33
2019-04-04T07:46:21.765Z,25.33
2019-04-04T07:48:51.581Z,24.73
2019-04-04T07:51:19.167Z,23.97
2019-04-04T07:53:46.893Z,25.50
2019-04-04T07:56:14.947Z,24.80
2019-04-04T07:58:42.709Z,24.00
2019-04-04T08:01:10.447Z,24.33
2019-04-04T08:03:38.217Z,23.30
2019-04-04T08:06:06.004Z,20.80
2019-04-04T08:08:33.905Z,21.57
2019-04-04T08:11:02.205Z,22.67
2019-04-04T08:13:29.948Z,23.17
2019-04-04T08:15:57.729Z,23.43
2019-04-04T08:18:25.453Z,24.00
2019-04-04T08:20:53.236Z,21.47
2019-04-04T08:23:21.770Z,21.43
2019-04-04T08:25:49.524Z,22.87
2019-04-04T08:28:17.250Z,21.87
2019-04-04T08:30:45.112Z,24.13
2019-04-04T08:33:13.373Z,24.57
2019-04-04T08:35:41.136Z,25.27
2019-04-04T08:38:08.896Z,24.17
2019-04-04T08:40:36.679Z,23.80
2019-04-04T08:43:04.423Z,22.27
2019-04-04T08:45:32.160Z,22.93
2019-04-04T08:47:59.909Z,23.53
2019-04-04T08:50:27.689Z,21.90
2019-04-04T08:52:55.422Z,23.87
2019-04-04T08:55:23.159Z,23.60
2019-04-04T08:57:50.912Z,22.82
2019-04-04T09:00:18.632Z,21.80
2019-04-04T09:02:47.608Z,20.97
2019-04-04T09:05:15.344Z,19.57
2019-04-04T09:07:43.101Z,17.27
2019-04-04T09:10:11.191Z,21.23
2019-04-04T09:12:38.984Z,18.48
2019-04-04T09:15:07.875Z,16.37
2019-04-04T09:17:35.633Z,14.98
2019-04-04T09:20:05.151Z,18.12
2019-04-04T09:22:32.876Z,21.37
2019-04-04T09:25:01.541Z,19.90
2019-04-04T09:27:29.456Z,20.43
2019-04-04T09:29:57.155Z,13.75
2019-04-04T09:32:24.899Z,17.98
2019-04-04T09:34:52.839Z,16.00
2019-04-04T09:37:20.575Z,13.75
2019-04-04T09:39:48.343Z,12.90
2019-04-04T09:42:16.398Z,13.25
2019-04-04T09:44:44.158Z,14.40
2019-04-04T09:47:12.180Z,18.82
2019-04-04T09:49:39.912Z,14.30
2019-04-04T09:52:07.659Z,21.07
2019-04-04T09:54:35.402Z,17.20
2019-04-04T09:57:03.144Z,18.50
2019-04-04T09:59:30.876Z,20.17
2019-04-04T10:01:58.625Z,17.60
2019-04-04T10:04:26.344Z,13.65
2019-04-04T10:06:54.329Z,16.20
2019-04-04T10:09:22.056Z,13.68
2019-04-04T10:11:49.813Z,11.65
2019-04-04T10:14:17.543Z,18.50
2019-04-04T10:16:45.274Z,14.80
2019-04-04T10:19:13.043Z,20.77
2019-04-04T10:21:40.786Z,14.53
2019-04-04T10:24:08.528Z,19.57
2019-04-04T10:26:36.252Z,20.20
2019-04-04T10:29:04.011Z,17.92
2019-04-04T10:31:31.732Z,11.10
2019-04-04T10:33:59.488Z,18.82
2019-04-04T10:36:27.234Z,18.73
2019-04-04T10:38:54.952Z,12.20
2019-04-04T10:41:22.703Z,15.83
2019-04-04T10:43:50.601Z,11.55
2019-04-04T10:46:18.541Z,20.90
2019-04-04T10:48:46.259Z,16.12
2019-04-04T10:51:14.260Z,16.37
2019-04-04T10:53:41.977Z,13.60
2019-04-04T10:56:09.939Z,20.52
2019-04-04T10:58:38.246Z,17.77
2019-04-04T11:01:06.063Z,22.00
2019-04-04T11:03:33.787Z,21.82
2019-04-04T11:06:01.566Z,20.77
2019-04-04T11:08:29.323Z,20.97
2019-04-04T11:10:58.957Z,16.10
2019-04-04T11:13:33.444Z,18.55
2019-04-04T11:15:56.393Z,22.30
2019-04-04T11:18:24.177Z,21.82
2019-04-04T11:20:52.117Z,18.70
2019-04-04T11:23:19.891Z,15.98
2019-04-04T11:25:48.065Z,14.63
2019-04-04T11:28:15.838Z,15.43
2019-04-04T11:30:43.711Z,20.80
2019-04-04T11:33:11.475Z,19.23
2019-04-04T11:35:39.423Z,14.45
2019-04-04T11:38:07.238Z,22.62
2019-04-04T11:40:34.967Z,21.48
2019-04-04T11:43:02.761Z,23.80
2019-04-04T11:45:30.604Z,19.20
2019-04-04T11:47:59.199Z,20.75
2019-04-04T11:50:27.031Z,18.42
2019-04-04T11:52:54.838Z,14.65
2019-04-04T11:55:22.594Z,23.15
2019-04-04T11:57:50.372Z,22.02
2019-04-04T12:00:26.056Z,15.05
2019-04-04T12:02:53.869Z,18.65
2019-04-04T12:05:21.602Z,18.23
2019-04-04T12:07:49.361Z,17.87
2019-04-04T12:10:17.088Z,16.70
2019-04-04T12:12:44.840Z,17.45
2019-04-04T12:15:12.796Z,17.00
2019-04-04T12:17:40.534Z,15.55
2019-04-04T12:20:08.695Z,20.45
2019-04-04T12:22:36.426Z,19.10
2019-04-04T12:25:04.803Z,18.17
2019-04-04T12:27:32.560Z,19.27
2019-04-04T12:30:00.323Z,18.67
2019-04-04T12:32:28.072Z,17.90
2019-04-04T12:34:55.823Z,19.15
2019-04-04T12:37:23.565Z,22.45
2019-04-04T12:39:51.324Z,19.57
2019-04-04T12:42:19.057Z,20.92
2019-04-04T12:44:46.822Z,21.42
2019-04-04T12:47:14.608Z,19.02
2019-04-04T12:49:42.388Z,17.87
2019-04-04T12:52:10.117Z,16.60
2019-04-04T12:54:37.873Z,16.62
2019-04-04T12:57:05.636Z,20.92
2019-04-04T12:59:33.513Z,17.00
2019-04-04T13:02:03.035Z,16.15
2019-04-04T13:04:32.063Z,16.35
2019-04-04T13:07:00.062Z,17.05
2019-04-04T13:09:27.828Z,13.28
2019-04-04T13:11:55.589Z,15.23
2019-04-04T13:14:23.315Z,14.70
2019-04-04T13:16:51.046Z,13.85
2019-04-04T13:19:18.841Z,17.90
2019-04-04T13:21:46.531Z,17.52
2019-04-04T13:24:14.341Z,19.98
2019-04-04T13:26:43.460Z,20.68
2019-04-04T13:29:11.297Z,20.05
2019-04-04T13:31:39.036Z,19.17
2019-04-04T13:34:06.819Z,18.42
2019-04-04T13:36:36.714Z,17.32
2019-04-04T13:39:09.045Z,11.68
2019-04-04T13:41:37.076Z,11.68
2019-04-04T13:44:04.922Z,10.53
2019-04-04T13:46:32.688Z,9.35
2019-04-04T13:49:00.410Z,9.98
2019-04-04T13:51:28.202Z,9.30
2019-04-04T13:53:55.912Z,8.08
2019-04-04T13:56:23.699Z,6.92
2019-04-04T13:58:51.470Z,6.45
2019-04-04T14:01:19.214Z,6.05
2019-04-04T14:03:48.170Z,5.97
2019-04-04T14:06:15.968Z,6.12
2019-04-04T14:08:45.806Z,6.22
2019-04-04T14:11:13.454Z,5.83
2019-04-04T14:13:41.190Z,5.70
2019-04-04T14:16:08.912Z,5.78
2019-04-04T14:18:39.833Z,6.05
2019-04-04T14:21:06.383Z,5.25
2019-04-04T14:23:34.098Z,5.12
2019-04-04T14:26:02.209Z,5.15
2019-04-04T14:28:29.944Z,5.25
2019-04-04T14:30:58.201Z,5.10
2019-04-04T14:33:25.926Z,5.40
2019-04-04T14:35:53.692Z,5.10
2019-04-04T14:38:21.431Z,5.70
2019-04-04T14:40:49.222Z,5.50
2019-04-04T14:43:16.969Z,5.85
2019-04-04T14:45:44.705Z,5.75
2019-04-04T14:48:12.489Z,5.72
2019-04-04T14:50:40.283Z,5.92
2019-04-04T14:53:08.020Z,5.92
2019-04-04T14:55:35.792Z,6.37
2019-04-04T14:58:03.665Z,6.70
2019-04-04T15:00:31.498Z,6.73
2019-04-04T15:02:59.266Z,6.57
2019-04-04T15:05:26.989Z,7.20
2019-04-04T15:07:54.749Z,7.03
2019-04-04T15:10:22.479Z,6.67
2019-04-04T15:12:50.473Z,6.83
2019-04-04T15:15:18.229Z,6.93
2019-04-04T15:17:45.979Z,6.77
2019-04-04T15:20:13.957Z,6.27
2019-04-04T15:22:41.736Z,7.10
2019-04-04T15:25:10.460Z,6.80
2019-04-04T15:27:38.232Z,6.47
2019-04-04T15:30:06.557Z,6.73
2019-04-04T15:32:34.289Z,6.40
2019-04-04T15:35:02.022Z,7.47
2019-04-04T15:37:29.799Z,6.30
2019-04-04T15:39:57.541Z,7.10
2019-04-04T15:42:25.307Z,6.80
2019-04-04T15:44:53.040Z,6.33
2019-04-04T15:47:20.881Z,6.50
2019-04-04T15:49:49.720Z,6.53
2019-04-04T15:52:17.489Z,6.10
2019-04-04T15:54:45.201Z,6.00
2019-04-04T15:57:12.990Z,6.67
2019-04-04T15:59:40.752Z,6.37
2019-04-04T16:02:08.544Z,6.57
2019-04-04T16:04:36.295Z,6.40
2019-04-04T16:07:04.989Z,6.07
2019-04-04T16:09:32.750Z,5.87
2019-04-04T16:12:00.527Z,5.43
2019-04-04T16:14:28.325Z,6.27
2019-04-04T16:16:56.074Z,6.33
2019-04-04T16:19:24.218Z,6.10
2019-04-04T16:21:51.994Z,6.70
2019-04-04T16:24:19.776Z,6.17
2019-04-04T16:26:47.528Z,5.50
2019-04-04T16:29:15.315Z,6.23
2019-04-04T16:31:43.033Z,5.63
2019-04-04T16:34:10.807Z,6.23
2019-04-04T16:36:38.601Z,6.27
2019-04-04T16:39:07.750Z,6.27
2019-04-04T16:41:35.555Z,6.03
2019-04-04T16:44:03.535Z,5.93
2019-04-04T16:46:31.299Z,6.03
2019-04-04T16:48:59.049Z,6.13
2019-04-04T16:51:26.789Z,6.20
2019-04-04T16:53:54.543Z,5.90
2019-04-04T16:56:22.301Z,6.77
2019-04-04T16:58:50.102Z,6.40
2019-04-04T17:01:17.822Z,5.87
2019-04-04T17:03:45.589Z,6.20
2019-04-04T17:06:13.325Z,6.60
2019-04-04T17:08:41.135Z,7.13
2019-04-04T17:11:08.890Z,7.20
2019-04-04T17:13:36.657Z,6.67
2019-04-04T17:16:04.331Z,6.50
2019-04-04T17:18:32.153Z,7.50
2019-04-04T17:20:59.938Z,6.60
2019-04-04T17:23:27.707Z,7.00
2019-04-04T17:25:55.456Z,6.57
2019-04-04T17:28:23.794Z,18.53
2019-04-04T17:30:51.913Z,26.53
2019-04-04T17:33:19.784Z,25.27
2019-04-04T17:35:47.579Z,27.57
2019-04-04T17:38:15.327Z,28.80
2019-04-04T17:40:43.088Z,30.47
2019-04-04T17:43:10.834Z,32.30
2019-04-04T17:45:39.127Z,35.17
2019-04-04T17:48:07.393Z,33.37
2019-04-04T17:50:35.623Z,34.83
2019-04-04T17:53:03.558Z,34.87
2019-04-04T17:55:31.546Z,35.17
2019-04-04T17:57:59.357Z,33.57
2019-04-04T18:00:28.401Z,33.87
2019-04-04T18:02:56.160Z,34.13
2019-04-04T18:05:24.220Z,34.13
2019-04-04T18:07:51.960Z,34.50
2019-04-04T18:10:19.796Z,34.13
2019-04-04T18:12:47.539Z,35.07
2019-04-04T18:15:15.626Z,34.30
2019-04-04T18:17:43.381Z,35.57
2019-04-04T18:20:11.656Z,35.67
2019-04-04T18:22:39.387Z,35.80
2019-04-04T18:25:08.649Z,34.17
2019-04-04T18:27:36.471Z,34.47
2019-04-04T18:30:06.868Z,35.47
2019-04-04T18:32:34.613Z,35.13
2019-04-04T18:35:02.482Z,35.77
2019-04-04T18:37:30.239Z,34.43
2019-04-04T18:39:57.999Z,35.20
2019-04-04T18:42:25.809Z,33.73
2019-04-04T18:44:53.575Z,34.43
2019-04-04T18:47:21.360Z,34.30
2019-04-04T18:49:49.191Z,34.03
2019-04-04T18:52:16.975Z,32.40
2019-04-04T18:54:44.953Z,33.03
2019-04-04T18:57:13.260Z,31.33
2019-04-04T18:59:41.150Z,32.40
2019-04-04T19:02:08.995Z,31.80
2019-04-04T19:04:36.854Z,30.90
2019-04-04T19:07:04.619Z,31.53
2019-04-04T19:09:32.471Z,31.03
2019-04-04T19:12:00.238Z,30.23
2019-04-04T19:14:27.976Z,30.57
2019-04-04T19:16:55.751Z,29.90
2019-04-04T19:19:23.523Z,30.73
2019-04-04T19:21:51.305Z,29.23
2019-04-04T19:24:19.067Z,29.33
2019-04-04T19:26:46.803Z,30.50
2019-04-04T19:29:14.581Z,30.60
2019-04-04T19:31:42.360Z,29.97
2019-04-04T19:34:10.129Z,29.87
2019-04-04T19:36:37.962Z,29.63
2019-04-04T19:39:09.224Z,28.70
2019-04-04T19:41:37.750Z,29.83
2019-04-04T19:44:05.604Z,29.23
2019-04-04T19:46:37.300Z,29.60
2019-04-04T19:49:03.080Z,29.50
2019-04-04T19:51:30.867Z,29.33
2019-04-04T19:53:58.658Z,30.57
2019-04-04T19:56:26.681Z,31.63
2019-04-04T19:58:54.487Z,31.40
2019-04-04T20:01:22.283Z,31.00
2019-04-04T20:03:50.036Z,31.77
2019-04-04T20:06:17.777Z,31.40
2019-04-04T20:08:45.517Z,32.70
2019-04-04T20:11:13.280Z,33.00
2019-04-04T20:13:41.038Z,32.47
2019-04-04T20:16:08.854Z,32.13
2019-04-04T20:18:36.659Z,33.60
2019-04-04T20:21:04.440Z,33.47
2019-04-04T20:23:32.240Z,33.80
2019-04-04T20:26:00.127Z,35.03
2019-04-04T20:28:28.020Z,33.40
2019-04-04T20:30:55.789Z,35.10
2019-04-04T20:33:23.604Z,35.43
2019-04-04T20:35:51.343Z,35.03
2019-04-04T20:38:19.139Z,35.10
2019-04-04T20:40:48.010Z,37.07
2019-04-04T20:43:15.779Z,33.60
2019-04-04T20:45:43.549Z,35.27
2019-04-04T20:48:11.301Z,35.67
2019-04-04T20:50:39.073Z,34.63
2019-04-04T20:53:06.850Z,36.27
2019-04-04T20:55:34.583Z,34.90
2019-04-04T20:58:02.437Z,35.07
2019-04-04T21:00:30.219Z,35.67
2019-04-04T21:02:58.019Z,39.27
2019-04-04T21:05:25.799Z,37.40
2019-04-04T21:07:53.559Z,36.90
2019-04-04T21:10:21.333Z,35.13
2019-04-04T21:12:49.097Z,35.77
2019-04-04T21:15:16.859Z,36.63
2019-04-04T21:17:44.623Z,34.47
2019-04-04T21:20:13.297Z,36.70
2019-04-04T21:22:41.023Z,37.67
2019-04-04T21:25:09.095Z,37.87
2019-04-04T21:27:36.838Z,37.80
2019-04-04T21:30:05.421Z,39.00
2019-04-04T21:32:33.177Z,39.97
2019-04-04T21:35:00.941Z,38.00
2019-04-04T21:37:28.682Z,39.97
2019-04-04T21:39:56.539Z,41.30
2019-04-04T21:42:24.288Z,40.30
2019-04-04T21:44:52.080Z,39.87
2019-04-04T21:47:19.814Z,40.87
2019-04-04T21:49:47.569Z,39.87
2019-04-04T21:52:15.322Z,40.80
2019-04-04T21:54:43.090Z,42.67
2019-04-04T21:57:10.844Z,41.30
2019-04-04T21:59:38.591Z,40.50
2019-04-04T22:02:06.337Z,39.30
2019-04-04T22:04:34.082Z,40.83
2019-04-04T22:07:01.838Z,41.33
2019-04-04T22:09:29.589Z,42.40
2019-04-04T22:11:57.329Z,40.00
2019-04-04T22:14:25.084Z,39.33
2019-04-04T22:16:52.806Z,40.17
2019-04-04T22:19:20.569Z,39.40
2019-04-04T22:21:48.296Z,39.03
2019-04-04T22:24:16.019Z,40.20
2019-04-04T22:26:43.787Z,42.27
2019-04-04T22:29:11.819Z,40.87
2019-04-04T22:31:39.570Z,41.20
2019-04-04T22:34:07.363Z,39.67
2019-04-04T22:36:35.134Z,39.90
2019-04-04T22:39:07.350Z,40.53
2019-04-04T22:41:35.145Z,40.60
2019-04-04T22:44:03.890Z,41.10
2019-04-04T22:46:31.804Z,40.93
2019-04-04T22:48:59.519Z,41.73
2019-04-04T22:51:27.271Z,42.47
2019-04-04T22:53:55.000Z,41.23
2019-04-04T22:56:22.771Z,41.90
2019-04-04T22:58:50.533Z,41.87
2019-04-04T23:01:18.299Z,44.40
2019-04-04T23:03:46.033Z,42.93
2019-04-04T23:06:14.126Z,41.77
2019-04-04T23:08:41.857Z,43.30
2019-04-04T23:11:09.608Z,42.53
2019-04-04T23:13:37.395Z,43.13
2019-04-04T23:16:05.154Z,42.37
2019-04-04T23:18:32.877Z,41.97
2019-04-04T23:21:00.688Z,41.27
2019-04-04T23:23:28.379Z,41.93
2019-04-04T23:25:56.136Z,41.13
2019-04-04T23:28:23.903Z,40.93
2019-04-04T23:30:51.637Z,39.97
2019-04-04T23:33:19.454Z,40.73
2019-04-04T23:35:47.248Z,41.90
2019-04-04T23:38:14.997Z,40.20
2019-04-04T23:40:42.811Z,40.77
2019-04-04T23:43:10.529Z,40.80
2019-04-04T23:45:38.288Z,40.87
2019-04-04T23:48:06.024Z,40.47
2019-04-04T23:50:33.757Z,40.20
2019-04-04T23:53:01.551Z,39.37
2019-04-04T23:55:29.288Z,39.33
2019-04-04T23:57:57.540Z,40.00
